createdAt,value
2022-10-04T00:03:08.600Z,83.39
2022-10-04T00:06:21.238Z,83.35
2022-10-04T00:09:33.595Z,83.52
2022-10-04T00:12:46.644Z,83.60
2022-10-04T00:15:54.374Z,83.76
2022-10-04T00:19:27.483Z,83.77
2022-10-04T00:22:34.643Z,83.67
2022-10-04T00:25:40.812Z,83.81
2022-10-04T00:28:46.929Z,83.71
2022-10-04T00:32:27.208Z,83.86
2022-10-04T00:35:51.131Z,84.08
2022-10-04T00:39:16.307Z,84.04
2022-10-04T00:42:47.121Z,83.99
2022-10-04T00:45:58.910Z,84.22
2022-10-04T00:49:08.771Z,84.07
2022-10-04T00:52:17.839Z,84.19
2022-10-04T00:55:33.343Z,84.01
2022-10-04T00:58:48.865Z,84.09
2022-10-04T01:02:00.659Z,84.08
2022-10-04T01:05:12.030Z,84.25
2022-10-04T01:08:25.378Z,84.17
2022-10-04T01:11:37.221Z,84.20
2022-10-04T01:14:50.948Z,84.37
2022-10-04T01:18:15.901Z,84.43
2022-10-04T01:21:29.914Z,84.39
2022-10-04T01:24:39.051Z,84.35
2022-10-04T01:27:46.552Z,84.53
2022-10-04T01:30:53.131Z,84.37
2022-10-04T01:34:00.977Z,84.48
2022-10-04T01:37:07.346Z,84.43
2022-10-04T01:40:14.298Z,84.58
2022-10-04T01:43:28.061Z,84.66
2022-10-04T01:46:37.650Z,84.34
2022-10-04T01:49:46.846Z,84.46
2022-10-04T01:52:56.800Z,84.62
2022-10-04T01:56:10.685Z,84.75
2022-10-04T01:59:21.415Z,84.89
2022-10-04T02:02:35.732Z,84.89
2022-10-04T02:05:46.308Z,84.86
2022-10-04T02:08:57.759Z,84.74
2022-10-04T02:12:05.251Z,84.87
2022-10-04T02:15:13.128Z,84.91
2022-10-04T02:18:22.767Z,85.03
2022-10-04T02:21:29.443Z,85.02
2022-10-04T02:24:38.702Z,84.83
2022-10-04T02:27:44.969Z,84.88
2022-10-04T02:31:07.427Z,85.06
2022-10-04T02:34:14.579Z,85.01
2022-10-04T02:37:22.599Z,85.10
2022-10-04T02:40:33.915Z,85.17
2022-10-04T02:43:47.415Z,84.98
2022-10-04T02:46:57.346Z,85.13
2022-10-04T02:50:10.512Z,85.11
2022-10-04T02:53:25.239Z,84.93
2022-10-04T02:56:32.396Z,85.13
2022-10-04T02:59:42.378Z,85.09
2022-10-04T03:03:16.798Z,85.05
2022-10-04T03:06:26.353Z,84.98
2022-10-04T03:09:33.211Z,84.80
2022-10-04T03:12:39.919Z,84.80
2022-10-04T03:15:46.269Z,84.76
2022-10-04T03:18:54.319Z,84.70
2022-10-04T03:22:03.851Z,84.70
2022-10-04T03:25:18.733Z,84.86
2022-10-04T03:28:25.077Z,84.69
2022-10-04T03:31:33.035Z,84.71
2022-10-04T03:34:41.740Z,84.56
2022-10-04T03:37:48.119Z,84.63
2022-10-04T03:40:57.171Z,84.50
2022-10-04T03:44:05.205Z,84.66
2022-10-04T03:47:14.866Z,84.76
2022-10-04T03:50:25.128Z,84.73
2022-10-04T03:53:43.416Z,84.79
2022-10-04T03:56:49.978Z,84.68
2022-10-04T03:59:57.265Z,84.71
2022-10-04T04:03:07.382Z,84.68
2022-10-04T04:06:19.415Z,84.70
2022-10-04T04:09:33.259Z,84.79
2022-10-04T04:12:43.491Z,84.88
2022-10-04T04:15:50.474Z,84.85
2022-10-04T04:19:01.168Z,84.87
2022-10-04T04:22:07.664Z,84.83
2022-10-04T04:25:18.419Z,84.84
2022-10-04T04:28:28.946Z,84.76
2022-10-04T04:31:39.700Z,84.92
2022-10-04T04:34:53.999Z,84.66
2022-10-04T04:38:19.209Z,84.60
2022-10-04T04:41:27.174Z,84.79
2022-10-04T04:44:33.410Z,84.85
2022-10-04T04:47:41.959Z,84.67
2022-10-04T04:50:55.031Z,84.71
2022-10-04T04:54:02.905Z,84.60
2022-10-04T04:57:09.116Z,84.76
2022-10-04T05:00:19.124Z,84.66
2022-10-04T05:03:26.209Z,84.61
2022-10-04T05:06:34.422Z,84.63
2022-10-04T05:09:41.199Z,84.57
2022-10-04T05:12:47.373Z,84.68
2022-10-04T05:15:55.370Z,84.51
2022-10-04T05:19:04.540Z,84.62
2022-10-04T05:22:14.770Z,84.69
2022-10-04T05:25:28.114Z,84.64
2022-10-04T05:28:34.633Z,84.53
2022-10-04T05:31:49.538Z,84.47
2022-10-04T05:34:55.951Z,84.57
2022-10-04T05:38:13.282Z,84.59
2022-10-04T05:41:33.342Z,84.66
2022-10-04T05:44:51.896Z,84.77
2022-10-04T05:47:59.575Z,84.66
2022-10-04T05:51:14.058Z,84.49
2022-10-04T05:54:23.402Z,84.76
2022-10-04T05:57:39.915Z,84.65
2022-10-04T06:00:58.754Z,84.58
2022-10-04T06:04:35.551Z,84.61
2022-10-04T06:07:47.624Z,84.73
2022-10-04T06:11:06.807Z,84.79
2022-10-04T06:14:42.820Z,84.85
2022-10-04T06:18:13.331Z,84.77
2022-10-04T06:21:28.791Z,84.80
2022-10-04T06:24:40.590Z,84.98
2022-10-04T06:27:54.148Z,84.88
2022-10-04T06:31:39.550Z,85.14
2022-10-04T06:35:01.009Z,84.76
2022-10-04T06:38:31.342Z,84.69
2022-10-04T06:41:51.684Z,84.84
2022-10-04T06:45:19.508Z,84.95
2022-10-04T06:49:17.573Z,84.87
2022-10-04T06:52:56.880Z,84.70
2022-10-04T06:56:48.445Z,84.83
2022-10-04T07:00:09.406Z,84.53
2022-10-04T07:03:19.464Z,84.66
2022-10-04T07:06:30.723Z,84.60
2022-10-04T07:09:38.331Z,84.74
2022-10-04T07:12:53.018Z,84.57
2022-10-04T07:16:04.793Z,84.52
2022-10-04T07:19:29.168Z,84.46
2022-10-04T07:22:43.446Z,84.34
2022-10-04T07:25:53.870Z,84.29
2022-10-04T07:29:23.689Z,84.17
2022-10-04T07:32:33.678Z,84.19
2022-10-04T07:35:46.284Z,84.09
2022-10-04T07:38:58.548Z,84.30
2022-10-04T07:42:20.727Z,84.17
2022-10-04T07:45:32.835Z,84.23
2022-10-04T07:48:44.089Z,83.99
2022-10-04T07:52:13.607Z,83.92
2022-10-04T07:55:29.030Z,83.81
2022-10-04T07:58:52.992Z,83.76
2022-10-04T08:02:15.109Z,83.75
2022-10-04T08:05:27.437Z,83.53
2022-10-04T08:08:46.927Z,83.57
2022-10-04T08:12:02.944Z,83.43
2022-10-04T08:15:36.126Z,83.29
2022-10-04T08:18:53.659Z,83.27
2022-10-04T08:22:05.711Z,83.13
2022-10-04T08:25:23.384Z,83.12
2022-10-04T08:28:57.561Z,83.42
2022-10-04T08:32:10.587Z,83.46
2022-10-04T08:35:33.543Z,83.20
2022-10-04T08:38:49.435Z,82.78
2022-10-04T08:42:15.380Z,82.89
2022-10-04T08:46:04.245Z,82.91
2022-10-04T08:49:47.023Z,83.01
2022-10-04T08:53:20.847Z,82.77
2022-10-04T08:56:46.875Z,82.66
2022-10-04T09:00:13.835Z,82.53
2022-10-04T09:03:49.919Z,82.52
2022-10-04T09:07:11.255Z,82.51
2022-10-04T09:10:39.392Z,82.38
2022-10-04T09:13:56.937Z,82.12
2022-10-04T09:17:22.273Z,82.30
2022-10-04T09:20:47.191Z,82.33
2022-10-04T09:24:21.512Z,82.15
2022-10-04T09:28:00.569Z,82.12
2022-10-04T09:31:35.138Z,81.94
2022-10-04T09:35:04.350Z,81.96
2022-10-04T09:38:40.809Z,81.79
2022-10-04T09:42:07.492Z,81.84
2022-10-04T09:45:37.819Z,81.88
2022-10-04T09:48:53.950Z,81.41
2022-10-04T09:52:22.608Z,81.49
2022-10-04T09:55:55.580Z,81.52
2022-10-04T09:59:40.253Z,81.70
2022-10-04T10:03:19.203Z,81.34
2022-10-04T10:06:54.417Z,81.07
2022-10-04T10:10:26.699Z,81.05
2022-10-04T10:13:58.696Z,80.84
2022-10-04T10:17:16.262Z,81.07
2022-10-04T10:20:52.627Z,80.74
2022-10-04T10:24:35.118Z,80.62
2022-10-04T10:27:55.416Z,80.48
2022-10-04T10:31:23.518Z,80.11
2022-10-04T10:34:57.289Z,80.21
2022-10-04T10:38:25.792Z,80.44
2022-10-04T10:41:53.755Z,80.25
2022-10-04T10:45:33.892Z,80.04
2022-10-04T10:49:06.264Z,80.17
2022-10-04T10:52:44.707Z,79.88
2022-10-04T10:56:30.243Z,80.02
2022-10-04T11:00:21.521Z,79.60
2022-10-04T11:03:54.891Z,79.47
2022-10-04T11:07:31.215Z,79.21
2022-10-04T11:11:09.423Z,78.76
2022-10-04T11:14:33.323Z,78.55
2022-10-04T11:18:13.521Z,78.83
2022-10-04T11:21:43.281Z,78.42
2022-10-04T11:25:18.174Z,78.49
2022-10-04T11:28:32.919Z,78.07
2022-10-04T11:32:19.553Z,77.85
2022-10-04T11:35:47.441Z,77.55
2022-10-04T11:39:08.109Z,77.72
2022-10-04T11:42:27.823Z,77.66
2022-10-04T11:46:08.476Z,77.44
2022-10-04T11:49:49.174Z,77.66
2022-10-04T11:53:22.215Z,77.10
2022-10-04T11:56:42.843Z,77.09
2022-10-04T12:00:00.213Z,77.01
2022-10-04T12:03:31.468Z,76.28
2022-10-04T12:06:56.059Z,75.99
2022-10-04T12:10:24.750Z,76.06
2022-10-04T12:13:50.741Z,75.81
2022-10-04T12:17:25.583Z,75.74
2022-10-04T12:20:58.369Z,75.64
2022-10-04T12:24:32.771Z,75.50
2022-10-04T12:28:12.966Z,75.34
2022-10-04T12:31:24.308Z,74.79
2022-10-04T12:34:38.285Z,74.61
2022-10-04T12:37:56.392Z,74.29
2022-10-04T12:41:12.664Z,74.27
2022-10-04T12:44:32.568Z,74.33
2022-10-04T12:48:05.289Z,74.33
2022-10-04T12:51:29.017Z,74.22
2022-10-04T12:54:43.351Z,74.17
2022-10-04T12:57:57.897Z,74.18
2022-10-04T13:01:12.394Z,73.93
2022-10-04T13:04:29.363Z,73.46
2022-10-04T13:07:46.395Z,73.29
2022-10-04T13:11:18.770Z,73.35
2022-10-04T13:14:51.495Z,73.44
2022-10-04T13:18:06.700Z,73.33
2022-10-04T13:21:18.121Z,72.73
2022-10-04T13:24:53.468Z,72.57
2022-10-04T13:28:03.214Z,72.34
2022-10-04T13:31:15.866Z,72.11
2022-10-04T13:34:32.996Z,72.10
2022-10-04T13:37:51.560Z,72.00
2022-10-04T13:41:11.951Z,71.67
2022-10-04T13:44:33.538Z,71.47
2022-10-04T13:47:58.276Z,71.47
2022-10-04T13:52:15.150Z,71.28
2022-10-04T13:55:49.780Z,70.89
2022-10-04T13:59:05.093Z,70.83
2022-10-04T14:02:44.231Z,70.68
2022-10-04T14:06:19.963Z,70.75
2022-10-04T14:13:37.021Z,70.32
2022-10-04T14:17:15.573Z,70.06
2022-10-04T14:20:53.846Z,70.13
2022-10-04T14:24:39.066Z,70.00
2022-10-04T14:28:18.163Z,69.91
2022-10-04T14:31:40.288Z,69.59
2022-10-04T14:35:01.540Z,69.33
2022-10-04T14:38:32.080Z,69.16
2022-10-04T14:42:04.639Z,69.32
2022-10-04T14:45:29.698Z,68.95
2022-10-04T14:48:50.845Z,68.63
2022-10-04T14:52:14.557Z,68.60
2022-10-04T14:55:49.344Z,68.68
2022-10-04T14:59:09.453Z,68.44
2022-10-04T15:02:51.599Z,68.34
2022-10-04T15:06:11.841Z,67.99
2022-10-04T15:09:50.899Z,68.11
2022-10-04T15:13:11.605Z,67.82
2022-10-04T15:16:31.223Z,67.71
2022-10-04T15:19:54.687Z,67.77
2022-10-04T15:23:16.294Z,68.06
2022-10-04T15:26:56.418Z,67.67
2022-10-04T15:30:14.596Z,67.70
2022-10-04T15:33:40.683Z,67.66
2022-10-04T15:37:06.518Z,67.41
2022-10-04T15:40:34.098Z,67.57
2022-10-04T15:43:46.392Z,67.48
2022-10-04T15:46:57.269Z,67.52
2022-10-04T15:50:24.424Z,67.47
2022-10-04T15:53:51.422Z,67.36
2022-10-04T15:57:01.769Z,67.33
2022-10-04T16:00:15.335Z,67.45
2022-10-04T16:03:32.109Z,67.38
2022-10-04T16:06:51.171Z,67.59
2022-10-04T16:10:08.202Z,67.58
2022-10-04T16:13:41.266Z,67.70
2022-10-04T16:17:14.683Z,67.80
2022-10-04T16:20:40.828Z,68.04
2022-10-04T16:23:48.397Z,67.95
2022-10-04T16:27:24.360Z,68.04
2022-10-04T16:30:38.184Z,68.28
2022-10-04T16:33:55.289Z,68.40
2022-10-04T16:37:13.708Z,68.43
2022-10-04T16:40:34.072Z,68.58
2022-10-04T16:43:50.891Z,68.67
2022-10-04T16:47:02.144Z,68.52
2022-10-04T16:50:13.247Z,68.68
2022-10-04T16:53:32.835Z,68.86
2022-10-04T16:57:22.743Z,69.09
2022-10-04T17:00:38.690Z,68.99
2022-10-04T17:03:49.780Z,69.12
2022-10-04T17:06:59.311Z,69.35
2022-10-04T17:10:20.489Z,69.35
2022-10-04T17:13:33.960Z,69.35
2022-10-04T17:16:48.591Z,69.30
2022-10-04T17:20:03.535Z,69.47
2022-10-04T17:23:22.864Z,69.40
2022-10-04T17:26:42.208Z,69.56
2022-10-04T17:30:06.655Z,69.67
2022-10-04T17:33:31.279Z,69.77
2022-10-04T17:36:43.996Z,69.87
2022-10-04T17:39:54.632Z,69.64
2022-10-04T17:43:07.717Z,69.91
2022-10-04T17:46:24.394Z,70.16
2022-10-04T17:49:59.510Z,70.17
2022-10-04T17:53:31.055Z,70.00
2022-10-04T17:56:44.239Z,70.24
2022-10-04T17:59:55.275Z,70.21
2022-10-04T18:03:15.222Z,70.37
2022-10-04T18:06:30.982Z,70.53
2022-10-04T18:09:44.199Z,70.63
2022-10-04T18:12:57.932Z,70.70
2022-10-04T18:16:12.044Z,70.60
2022-10-04T18:19:44.041Z,70.76
2022-10-04T18:22:51.740Z,70.76
2022-10-04T18:26:01.438Z,70.88
2022-10-04T18:29:13.817Z,70.72
2022-10-04T18:32:38.045Z,70.87
2022-10-04T18:35:55.206Z,71.05
2022-10-04T18:39:20.912Z,71.12
2022-10-04T18:42:32.323Z,70.96
2022-10-04T18:45:38.682Z,70.97
2022-10-04T18:48:53.492Z,71.02
2022-10-04T18:52:17.241Z,71.22
2022-10-04T18:55:34.895Z,71.26
2022-10-04T18:59:12.153Z,71.35
2022-10-04T19:02:25.756Z,71.48
2022-10-04T19:05:39.737Z,71.52
2022-10-04T19:08:58.064Z,71.32
2022-10-04T19:12:12.997Z,71.45
2022-10-04T19:15:30.904Z,71.60
2022-10-04T19:18:57.854Z,71.71
2022-10-04T19:22:13.551Z,71.77
2022-10-04T19:25:35.088Z,71.98
2022-10-04T19:28:42.104Z,71.76
2022-10-04T19:31:54.482Z,71.87
2022-10-04T19:35:13.115Z,71.83
2022-10-04T19:38:33.876Z,71.88
2022-10-04T19:41:51.484Z,71.98
2022-10-04T19:45:16.270Z,72.02
2022-10-04T19:48:25.994Z,72.22
2022-10-04T19:51:39.630Z,72.24
2022-10-04T19:54:48.660Z,72.21
2022-10-04T19:58:01.752Z,72.31
2022-10-04T20:01:13.723Z,72.34
2022-10-04T20:04:36.338Z,72.55
2022-10-04T20:07:42.651Z,72.49
2022-10-04T20:10:47.579Z,72.47
2022-10-04T20:14:55.142Z,72.80
2022-10-04T20:18:01.658Z,72.49
2022-10-04T20:21:10.208Z,72.64
2022-10-04T20:24:40.671Z,72.64
2022-10-04T20:28:05.373Z,72.90
2022-10-04T20:31:12.311Z,72.98
2022-10-04T20:34:35.703Z,72.88
2022-10-04T20:38:31.111Z,72.84
2022-10-04T20:42:05.459Z,73.13
2022-10-04T20:45:28.666Z,73.17
2022-10-04T20:48:35.053Z,73.16
2022-10-04T20:51:47.720Z,73.13
2022-10-04T20:54:55.297Z,73.21
2022-10-04T20:58:04.455Z,73.39
2022-10-04T21:01:44.164Z,73.24
2022-10-04T21:04:53.538Z,73.39
2022-10-04T21:08:27.050Z,73.56
2022-10-04T21:11:47.794Z,73.45
2022-10-04T21:15:07.120Z,73.63
2022-10-04T21:18:13.338Z,73.63
2022-10-04T21:21:37.867Z,73.75
2022-10-04T21:24:54.989Z,73.78
2022-10-04T21:28:39.776Z,73.80
2022-10-04T21:31:46.003Z,73.61
2022-10-04T21:34:54.336Z,73.75
2022-10-04T21:38:01.019Z,73.57
2022-10-04T21:41:07.969Z,73.84
2022-10-04T21:44:14.069Z,73.76
2022-10-04T21:47:21.732Z,73.69
2022-10-04T21:50:27.813Z,73.67
2022-10-04T21:53:33.983Z,73.76
2022-10-04T21:56:40.147Z,73.77
2022-10-04T21:59:47.370Z,73.80
2022-10-04T22:02:53.598Z,73.92
2022-10-04T22:05:59.888Z,73.77
2022-10-04T22:09:04.906Z,73.82
2022-10-04T22:12:11.192Z,73.94
2022-10-04T22:15:15.419Z,73.95
2022-10-04T22:18:21.565Z,74.01
2022-10-04T22:21:27.866Z,74.05
2022-10-04T22:24:32.145Z,74.12
2022-10-04T22:27:38.376Z,74.30
2022-10-04T22:30:45.435Z,74.48
2022-10-04T22:33:52.657Z,74.34
2022-10-04T22:36:59.352Z,74.53
2022-10-04T22:40:06.228Z,74.39
2022-10-04T22:43:16.832Z,74.68
2022-10-04T22:46:23.492Z,74.51
2022-10-04T22:49:31.860Z,74.63
2022-10-04T22:52:38.380Z,74.72
2022-10-04T22:55:44.837Z,74.90
2022-10-04T22:58:50.970Z,74.82
2022-10-04T23:01:57.046Z,74.82
2022-10-04T23:05:13.638Z,74.97
2022-10-04T23:08:19.832Z,75.08
2022-10-04T23:11:25.996Z,74.89
2022-10-04T23:14:32.159Z,74.93
2022-10-04T23:17:40.740Z,74.74
2022-10-04T23:20:49.812Z,75.21
2022-10-04T23:23:56.352Z,75.32
2022-10-04T23:27:03.976Z,75.50
2022-10-04T23:30:16.907Z,75.42
2022-10-04T23:33:25.014Z,75.53
2022-10-04T23:36:31.679Z,75.64
2022-10-04T23:39:38.219Z,75.47
2022-10-04T23:42:44.658Z,75.46
2022-10-04T23:45:51.447Z,75.46
2022-10-04T23:48:57.671Z,75.65
2022-10-04T23:52:11.519Z,75.74
2022-10-04T23:55:20.477Z,75.88
2022-10-04T23:58:29.174Z,75.85
